sensor_id;sensor_type;location;lat;lon;timestamp;temperature;humidity
13332;DHT22;6735;51.456;12.626;2024-02-28T00:02:05;5.50;87.60
13332;DHT22;6735;51.456;12.626;2024-02-28T00:04:30;5.50;87.80
13332;DHT22;6735;51.456;12.626;2024-02-28T00:06:55;5.50;87.70
13332;DHT22;6735;51.456;12.626;2024-02-28T00:09:21;5.50;87.70
13332;DHT22;6735;51.456;12.626;2024-02-28T00:11:47;5.50;87.60
13332;DHT22;6735;51.456;12.626;2024-02-28T00:14:13;5.50;87.50
13332;DHT22;6735;51.456;12.626;2024-02-28T00:16:45;5.40;87.60
13332;DHT22;6735;51.456;12.626;2024-02-28T00:19:11;5.40;87.50
13332;DHT22;6735;51.456;12.626;2024-02-28T00:21:38;5.40;87.60
13332;DHT22;6735;51.456;12.626;2024-02-28T00:24:04;5.40;87.50
13332;DHT22;6735;51.456;12.626;2024-02-28T00:26:29;5.40;87.40
13332;DHT22;6735;51.456;12.626;2024-02-28T00:28:55;5.40;87.60
13332;DHT22;6735;51.456;12.626;2024-02-28T00:31:20;5.40;87.60
13332;DHT22;6735;51.456;12.626;2024-02-28T00:33:47;5.40;87.50
13332;DHT22;6735;51.456;12.626;2024-02-28T00:36:12;5.40;87.60
13332;DHT22;6735;51.456;12.626;2024-02-28T00:38:38;5.40;87.60
13332;DHT22;6735;51.456;12.626;2024-02-28T00:41:03;5.40;87.50
13332;DHT22;6735;51.456;12.626;2024-02-28T00:43:29;5.40;87.50
13332;DHT22;6735;51.456;12.626;2024-02-28T00:45:54;5.40;87.60
13332;DHT22;6735;51.456;12.626;2024-02-28T00:48:21;5.40;87.50
13332;DHT22;6735;51.456;12.626;2024-02-28T00:50:47;5.40;87.40
13332;DHT22;6735;51.456;12.626;2024-02-28T00:53:12;5.50;87.40
13332;DHT22;6735;51.456;12.626;2024-02-28T00:55:38;5.50;87.30
13332;DHT22;6735;51.456;12.626;2024-02-28T00:58:03;5.50;87.10
13332;DHT22;6735;51.456;12.626;2024-02-28T01:00:29;5.40;87.10
13332;DHT22;6735;51.456;12.626;2024-02-28T01:02:54;5.40;87.20
13332;DHT22;6735;51.456;12.626;2024-02-28T01:05:20;5.50;86.90
13332;DHT22;6735;51.456;12.626;2024-02-28T01:07:45;5.40;87.00
13332;DHT22;6735;51.456;12.626;2024-02-28T01:10:11;5.40;86.90
13332;DHT22;6735;51.456;12.626;2024-02-28T01:12:36;5.40;87.10
13332;DHT22;6735;51.456;12.626;2024-02-28T01:15:02;5.40;87.00
13332;DHT22;6735;51.456;12.626;2024-02-28T01:17:28;5.40;86.90
13332;DHT22;6735;51.456;12.626;2024-02-28T01:19:54;5.40;87.10
13332;DHT22;6735;51.456;12.626;2024-02-28T01:22:19;5.40;87.00
13332;DHT22;6735;51.456;12.626;2024-02-28T01:24:45;5.30;87.00
13332;DHT22;6735;51.456;12.626;2024-02-28T01:27:10;5.40;87.10
13332;DHT22;6735;51.456;12.626;2024-02-28T01:29:36;5.30;87.10
13332;DHT22;6735;51.456;12.626;2024-02-28T01:32:01;5.30;87.10
13332;DHT22;6735;51.456;12.626;2024-02-28T01:34:26;5.30;87.10
13332;DHT22;6735;51.456;12.626;2024-02-28T01:36:52;5.30;87.10
13332;DHT22;6735;51.456;12.626;2024-02-28T01:39:17;5.40;87.20
13332;DHT22;6735;51.456;12.626;2024-02-28T01:41:54;5.30;87.10
13332;DHT22;6735;51.456;12.626;2024-02-28T01:44:20;5.30;87.00
13332;DHT22;6735;51.456;12.626;2024-02-28T01:46:46;5.30;87.20
13332;DHT22;6735;51.456;12.626;2024-02-28T01:49:12;5.30;87.30
13332;DHT22;6735;51.456;12.626;2024-02-28T01:51:37;5.30;87.30
13332;DHT22;6735;51.456;12.626;2024-02-28T01:54:03;5.30;87.30
13332;DHT22;6735;51.456;12.626;2024-02-28T01:56:29;5.30;87.40
13332;DHT22;6735;51.456;12.626;2024-02-28T01:58:56;5.20;87.40
13332;DHT22;6735;51.456;12.626;2024-02-28T02:01:22;5.20;87.40
13332;DHT22;6735;51.456;12.626;2024-02-28T02:03:47;5.20;87.40
13332;DHT22;6735;51.456;12.626;2024-02-28T02:06:13;5.20;87.50
13332;DHT22;6735;51.456;12.626;2024-02-28T02:08:39;5.20;87.30
13332;DHT22;6735;51.456;12.626;2024-02-28T02:11:05;5.30;87.30
13332;DHT22;6735;51.456;12.626;2024-02-28T02:13:31;5.20;87.40
13332;DHT22;6735;51.456;12.626;2024-02-28T02:15:57;5.20;87.40
13332;DHT22;6735;51.456;12.626;2024-02-28T02:18:22;5.20;87.30
13332;DHT22;6735;51.456;12.626;2024-02-28T02:20:55;5.20;87.50
13332;DHT22;6735;51.456;12.626;2024-02-28T02:23:22;5.20;87.50
13332;DHT22;6735;51.456;12.626;2024-02-28T02:25:48;5.20;87.70
13332;DHT22;6735;51.456;12.626;2024-02-28T02:28:14;5.20;87.60
13332;DHT22;6735;51.456;12.626;2024-02-28T02:30:40;5.20;87.70
13332;DHT22;6735;51.456;12.626;2024-02-28T02:33:09;5.10;87.60
13332;DHT22;6735;51.456;12.626;2024-02-28T02:35:34;5.10;87.60
13332;DHT22;6735;51.456;12.626;2024-02-28T02:38:00;5.10;87.80
13332;DHT22;6735;51.456;12.626;2024-02-28T02:40:26;5.20;87.70
13332;DHT22;6735;51.456;12.626;2024-02-28T02:42:51;5.10;87.70
13332;DHT22;6735;51.456;12.626;2024-02-28T02:45:17;5.10;87.80
13332;DHT22;6735;51.456;12.626;2024-02-28T02:47:42;5.10;88.10
13332;DHT22;6735;51.456;12.626;2024-02-28T02:50:11;5.10;88.00
13332;DHT22;6735;51.456;12.626;2024-02-28T02:52:37;5.10;87.80
13332;DHT22;6735;51.456;12.626;2024-02-28T02:55:03;5.10;87.80
13332;DHT22;6735;51.456;12.626;2024-02-28T02:57:28;5.10;87.90
13332;DHT22;6735;51.456;12.626;2024-02-28T02:59:56;5.10;87.70
13332;DHT22;6735;51.456;12.626;2024-02-28T03:02:21;5.10;87.70
13332;DHT22;6735;51.456;12.626;2024-02-28T03:04:47;5.10;87.60
13332;DHT22;6735;51.456;12.626;2024-02-28T03:07:12;5.10;87.50
13332;DHT22;6735;51.456;12.626;2024-02-28T03:09:38;5.20;87.60
13332;DHT22;6735;51.456;12.626;2024-02-28T03:12:03;5.20;87.50
13332;DHT22;6735;51.456;12.626;2024-02-28T03:14:29;5.20;87.50
13332;DHT22;6735;51.456;12.626;2024-02-28T03:16:54;5.20;87.40
13332;DHT22;6735;51.456;12.626;2024-02-28T03:19:20;5.20;87.20
13332;DHT22;6735;51.456;12.626;2024-02-28T03:21:46;5.20;87.20
13332;DHT22;6735;51.456;12.626;2024-02-28T03:24:11;5.20;87.10
13332;DHT22;6735;51.456;12.626;2024-02-28T03:26:37;5.10;87.20
13332;DHT22;6735;51.456;12.626;2024-02-28T03:29:02;5.10;87.30
13332;DHT22;6735;51.456;12.626;2024-02-28T03:31:28;5.10;87.40
13332;DHT22;6735;51.456;12.626;2024-02-28T03:33:53;5.10;87.30
13332;DHT22;6735;51.456;12.626;2024-02-28T03:36:19;5.10;87.10
13332;DHT22;6735;51.456;12.626;2024-02-28T03:38:44;5.10;87.10
13332;DHT22;6735;51.456;12.626;2024-02-28T03:41:10;5.10;87.10
13332;DHT22;6735;51.456;12.626;2024-02-28T03:43:35;5.10;87.20
13332;DHT22;6735;51.456;12.626;2024-02-28T03:46:01;5.00;87.20
13332;DHT22;6735;51.456;12.626;2024-02-28T03:48:27;5.00;87.10
13332;DHT22;6735;51.456;12.626;2024-02-28T03:50:52;5.00;87.10
13332;DHT22;6735;51.456;12.626;2024-02-28T03:53:17;4.90;87.10
13332;DHT22;6735;51.456;12.626;2024-02-28T03:55:43;5.00;87.20
13332;DHT22;6735;51.456;12.626;2024-02-28T03:58:11;4.90;87.00
13332;DHT22;6735;51.456;12.626;2024-02-28T04:00:37;4.90;87.00
13332;DHT22;6735;51.456;12.626;2024-02-28T04:03:04;4.90;87.10
13332;DHT22;6735;51.456;12.626;2024-02-28T04:05:30;4.90;87.00
13332;DHT22;6735;51.456;12.626;2024-02-28T04:07:56;4.90;87.20
13332;DHT22;6735;51.456;12.626;2024-02-28T04:10:21;4.90;87.10
13332;DHT22;6735;51.456;12.626;2024-02-28T04:12:47;4.80;87.00
13332;DHT22;6735;51.456;12.626;2024-02-28T04:15:12;4.80;87.10
13332;DHT22;6735;51.456;12.626;2024-02-28T04:17:38;4.80;87.30
13332;DHT22;6735;51.456;12.626;2024-02-28T04:20:08;4.80;87.40
13332;DHT22;6735;51.456;12.626;2024-02-28T04:22:34;4.80;87.40
13332;DHT22;6735;51.456;12.626;2024-02-28T04:24:59;4.70;87.40
13332;DHT22;6735;51.456;12.626;2024-02-28T04:27:25;4.70;87.60
13332;DHT22;6735;51.456;12.626;2024-02-28T04:29:50;4.70;87.60
13332;DHT22;6735;51.456;12.626;2024-02-28T04:32:16;4.60;87.90
13332;DHT22;6735;51.456;12.626;2024-02-28T04:34:41;4.70;87.90
13332;DHT22;6735;51.456;12.626;2024-02-28T04:37:06;4.70;88.00
13332;DHT22;6735;51.456;12.626;2024-02-28T04:39:32;4.70;87.90
13332;DHT22;6735;51.456;12.626;2024-02-28T04:41:57;4.70;87.90
13332;DHT22;6735;51.456;12.626;2024-02-28T04:44:23;4.70;87.80
13332;DHT22;6735;51.456;12.626;2024-02-28T04:46:48;4.60;87.90
13332;DHT22;6735;51.456;12.626;2024-02-28T04:49:14;4.70;87.90
13332;DHT22;6735;51.456;12.626;2024-02-28T04:51:39;4.70;87.80
13332;DHT22;6735;51.456;12.626;2024-02-28T04:54:05;4.70;87.80
13332;DHT22;6735;51.456;12.626;2024-02-28T04:56:30;4.70;87.80
13332;DHT22;6735;51.456;12.626;2024-02-28T04:58:56;4.70;87.70
13332;DHT22;6735;51.456;12.626;2024-02-28T05:01:21;4.70;87.40
13332;DHT22;6735;51.456;12.626;2024-02-28T05:03:46;4.70;87.30
13332;DHT22;6735;51.456;12.626;2024-02-28T05:06:12;4.70;87.20
13332;DHT22;6735;51.456;12.626;2024-02-28T05:08:38;4.70;87.10
13332;DHT22;6735;51.456;12.626;2024-02-28T05:11:03;4.70;87.20
13332;DHT22;6735;51.456;12.626;2024-02-28T05:13:29;4.60;87.00
13332;DHT22;6735;51.456;12.626;2024-02-28T05:15:54;4.60;86.90
13332;DHT22;6735;51.456;12.626;2024-02-28T05:18:20;4.70;86.90
13332;DHT22;6735;51.456;12.626;2024-02-28T05:20:45;4.60;86.80
13332;DHT22;6735;51.456;12.626;2024-02-28T05:23:11;4.60;86.70
13332;DHT22;6735;51.456;12.626;2024-02-28T05:25:37;4.60;86.60
13332;DHT22;6735;51.456;12.626;2024-02-28T05:28:03;4.60;86.50
13332;DHT22;6735;51.456;12.626;2024-02-28T05:30:28;4.60;86.30
13332;DHT22;6735;51.456;12.626;2024-02-28T05:32:54;4.60;86.30
13332;DHT22;6735;51.456;12.626;2024-02-28T05:35:19;4.60;86.30
13332;DHT22;6735;51.456;12.626;2024-02-28T05:37:45;4.60;86.30
13332;DHT22;6735;51.456;12.626;2024-02-28T05:40:12;4.60;86.30
13332;DHT22;6735;51.456;12.626;2024-02-28T05:42:38;4.60;86.30
13332;DHT22;6735;51.456;12.626;2024-02-28T05:45:05;4.60;86.40
13332;DHT22;6735;51.456;12.626;2024-02-28T05:47:31;4.70;86.30
13332;DHT22;6735;51.456;12.626;2024-02-28T05:49:56;4.60;86.20
13332;DHT22;6735;51.456;12.626;2024-02-28T05:52:24;4.60;86.30
13332;DHT22;6735;51.456;12.626;2024-02-28T05:54:50;4.60;86.30
13332;DHT22;6735;51.456;12.626;2024-02-28T05:57:16;4.60;86.10
13332;DHT22;6735;51.456;12.626;2024-02-28T05:59:42;4.60;86.30
13332;DHT22;6735;51.456;12.626;2024-02-28T06:02:07;4.50;86.00
13332;DHT22;6735;51.456;12.626;2024-02-28T06:04:33;4.50;86.10
13332;DHT22;6735;51.456;12.626;2024-02-28T06:06:58;4.50;86.10
13332;DHT22;6735;51.456;12.626;2024-02-28T06:09:26;4.50;86.10
13332;DHT22;6735;51.456;12.626;2024-02-28T06:11:53;4.50;86.00
13332;DHT22;6735;51.456;12.626;2024-02-28T06:14:18;4.50;86.10
13332;DHT22;6735;51.456;12.626;2024-02-28T06:16:46;4.50;86.10
13332;DHT22;6735;51.456;12.626;2024-02-28T06:19:12;4.50;85.90
13332;DHT22;6735;51.456;12.626;2024-02-28T06:21:37;4.50;85.90
13332;DHT22;6735;51.456;12.626;2024-02-28T06:24:03;4.40;85.60
13332;DHT22;6735;51.456;12.626;2024-02-28T06:26:30;4.40;85.20
13332;DHT22;6735;51.456;12.626;2024-02-28T06:28:56;4.30;85.40
13332;DHT22;6735;51.456;12.626;2024-02-28T06:31:27;4.40;85.10
13332;DHT22;6735;51.456;12.626;2024-02-28T06:33:55;4.40;85.20
13332;DHT22;6735;51.456;12.626;2024-02-28T06:36:20;4.40;85.10
13332;DHT22;6735;51.456;12.626;2024-02-28T06:38:45;4.30;85.00
13332;DHT22;6735;51.456;12.626;2024-02-28T06:41:11;4.40;85.10
13332;DHT22;6735;51.456;12.626;2024-02-28T06:43:36;4.30;85.00
13332;DHT22;6735;51.456;12.626;2024-02-28T06:46:02;4.40;85.00
13332;DHT22;6735;51.456;12.626;2024-02-28T06:48:28;4.30;84.90
13332;DHT22;6735;51.456;12.626;2024-02-28T06:50:54;4.30;84.90
13332;DHT22;6735;51.456;12.626;2024-02-28T06:53:20;4.30;84.80
13332;DHT22;6735;51.456;12.626;2024-02-28T06:55:45;4.30;84.70
13332;DHT22;6735;51.456;12.626;2024-02-28T06:58:13;4.30;84.70
13332;DHT22;6735;51.456;12.626;2024-02-28T07:00:39;4.30;84.70
13332;DHT22;6735;51.456;12.626;2024-02-28T07:03:04;4.30;84.30
13332;DHT22;6735;51.456;12.626;2024-02-28T07:05:30;4.30;84.40
13332;DHT22;6735;51.456;12.626;2024-02-28T07:07:55;4.30;84.30
13332;DHT22;6735;51.456;12.626;2024-02-28T07:10:21;4.40;84.20
13332;DHT22;6735;51.456;12.626;2024-02-28T07:12:46;4.40;84.20
13332;DHT22;6735;51.456;12.626;2024-02-28T07:15:11;4.40;84.10
13332;DHT22;6735;51.456;12.626;2024-02-28T07:17:37;4.40;83.60
13332;DHT22;6735;51.456;12.626;2024-02-28T07:20:03;4.40;83.90
13332;DHT22;6735;51.456;12.626;2024-02-28T07:22:28;4.50;83.80
13332;DHT22;6735;51.456;12.626;2024-02-28T07:24:54;4.50;83.60
13332;DHT22;6735;51.456;12.626;2024-02-28T07:27:22;4.50;83.20
13332;DHT22;6735;51.456;12.626;2024-02-28T07:29:47;4.50;83.00
13332;DHT22;6735;51.456;12.626;2024-02-28T07:32:13;4.60;82.80
13332;DHT22;6735;51.456;12.626;2024-02-28T07:34:39;4.60;82.50
13332;DHT22;6735;51.456;12.626;2024-02-28T07:37:04;4.60;82.90
13332;DHT22;6735;51.456;12.626;2024-02-28T07:39:30;4.60;82.40
13332;DHT22;6735;51.456;12.626;2024-02-28T07:41:55;4.50;81.90
13332;DHT22;6735;51.456;12.626;2024-02-28T07:44:21;4.60;82.70
13332;DHT22;6735;51.456;12.626;2024-02-28T07:46:46;4.60;82.00
13332;DHT22;6735;51.456;12.626;2024-02-28T07:49:12;4.60;81.90
13332;DHT22;6735;51.456;12.626;2024-02-28T07:51:38;4.70;82.00
13332;DHT22;6735;51.456;12.626;2024-02-28T07:54:03;4.80;82.20
13332;DHT22;6735;51.456;12.626;2024-02-28T07:56:29;4.80;83.20
13332;DHT22;6735;51.456;12.626;2024-02-28T07:58:54;4.90;81.90
13332;DHT22;6735;51.456;12.626;2024-02-28T08:01:20;4.90;81.90
13332;DHT22;6735;51.456;12.626;2024-02-28T08:03:47;5.00;81.80
13332;DHT22;6735;51.456;12.626;2024-02-28T08:06:13;5.00;81.20
13332;DHT22;6735;51.456;12.626;2024-02-28T08:08:38;4.90;81.00
13332;DHT22;6735;51.456;12.626;2024-02-28T08:11:03;5.00;81.50
13332;DHT22;6735;51.456;12.626;2024-02-28T08:13:29;5.00;81.10
13332;DHT22;6735;51.456;12.626;2024-02-28T08:15:55;5.00;81.10
13332;DHT22;6735;51.456;12.626;2024-02-28T08:18:21;5.10;81.40
13332;DHT22;6735;51.456;12.626;2024-02-28T08:20:46;5.00;80.30
13332;DHT22;6735;51.456;12.626;2024-02-28T08:23:12;5.10;81.00
13332;DHT22;6735;51.456;12.626;2024-02-28T08:25:37;5.10;80.20
13332;DHT22;6735;51.456;12.626;2024-02-28T08:28:03;5.10;79.80
13332;DHT22;6735;51.456;12.626;2024-02-28T08:30:29;5.20;80.00
13332;DHT22;6735;51.456;12.626;2024-02-28T08:32:54;5.20;79.90
13332;DHT22;6735;51.456;12.626;2024-02-28T08:35:20;5.30;78.90
13332;DHT22;6735;51.456;12.626;2024-02-28T08:37:45;5.30;79.00
13332;DHT22;6735;51.456;12.626;2024-02-28T08:40:11;5.40;79.90
13332;DHT22;6735;51.456;12.626;2024-02-28T08:42:37;5.50;79.10
13332;DHT22;6735;51.456;12.626;2024-02-28T08:45:03;5.60;78.70
13332;DHT22;6735;51.456;12.626;2024-02-28T08:47:31;5.60;77.60
13332;DHT22;6735;51.456;12.626;2024-02-28T08:49:56;5.50;77.50
13332;DHT22;6735;51.456;12.626;2024-02-28T08:52:22;5.60;77.80
13332;DHT22;6735;51.456;12.626;2024-02-28T08:54:47;5.60;76.90
13332;DHT22;6735;51.456;12.626;2024-02-28T08:57:14;5.70;76.90
13332;DHT22;6735;51.456;12.626;2024-02-28T08:59:39;5.60;75.60
13332;DHT22;6735;51.456;12.626;2024-02-28T09:02:06;5.60;75.80
13332;DHT22;6735;51.456;12.626;2024-02-28T09:04:31;5.70;76.10
13332;DHT22;6735;51.456;12.626;2024-02-28T09:06:57;5.80;76.50
13332;DHT22;6735;51.456;12.626;2024-02-28T09:09:22;5.80;76.10
13332;DHT22;6735;51.456;12.626;2024-02-28T09:11:48;5.90;75.40
13332;DHT22;6735;51.456;12.626;2024-02-28T09:14:13;5.80;75.20
13332;DHT22;6735;51.456;12.626;2024-02-28T09:16:39;5.80;75.20
13332;DHT22;6735;51.456;12.626;2024-02-28T09:19:04;5.80;75.70
13332;DHT22;6735;51.456;12.626;2024-02-28T09:21:30;5.80;74.30
13332;DHT22;6735;51.456;12.626;2024-02-28T09:23:56;5.70;74.50
13332;DHT22;6735;51.456;12.626;2024-02-28T09:26:22;5.80;74.30
13332;DHT22;6735;51.456;12.626;2024-02-28T09:28:47;5.80;74.60
13332;DHT22;6735;51.456;12.626;2024-02-28T09:31:13;5.90;74.70
13332;DHT22;6735;51.456;12.626;2024-02-28T09:33:40;6.00;75.00
13332;DHT22;6735;51.456;12.626;2024-02-28T09:36:06;6.00;73.80
13332;DHT22;6735;51.456;12.626;2024-02-28T09:38:31;6.00;74.40
13332;DHT22;6735;51.456;12.626;2024-02-28T09:40:58;6.10;74.30
13332;DHT22;6735;51.456;12.626;2024-02-28T09:43:31;6.20;74.40
13332;DHT22;6735;51.456;12.626;2024-02-28T09:46:03;6.30;74.50
13332;DHT22;6735;51.456;12.626;2024-02-28T09:48:29;6.30;74.30
13332;DHT22;6735;51.456;12.626;2024-02-28T09:50:59;6.50;74.10
13332;DHT22;6735;51.456;12.626;2024-02-28T09:53:25;6.40;73.30
13332;DHT22;6735;51.456;12.626;2024-02-28T09:55:51;6.50;73.60
13332;DHT22;6735;51.456;12.626;2024-02-28T09:58:18;6.70;73.80
13332;DHT22;6735;51.456;12.626;2024-02-28T10:00:45;6.80;72.80
13332;DHT22;6735;51.456;12.626;2024-02-28T10:03:17;6.90;71.90
13332;DHT22;6735;51.456;12.626;2024-02-28T10:05:46;7.00;72.10
13332;DHT22;6735;51.456;12.626;2024-02-28T10:08:12;7.00;70.30
13332;DHT22;6735;51.456;12.626;2024-02-28T10:10:45;7.30;71.60
13332;DHT22;6735;51.456;12.626;2024-02-28T10:13:11;7.50;72.00
13332;DHT22;6735;51.456;12.626;2024-02-28T10:15:36;7.60;70.20
13332;DHT22;6735;51.456;12.626;2024-02-28T10:18:02;7.70;70.40
13332;DHT22;6735;51.456;12.626;2024-02-28T10:20:30;7.70;68.30
13332;DHT22;6735;51.456;12.626;2024-02-28T10:22:56;7.80;67.30
13332;DHT22;6735;51.456;12.626;2024-02-28T10:25:21;7.70;69.90
13332;DHT22;6735;51.456;12.626;2024-02-28T10:27:47;7.80;68.90
13332;DHT22;6735;51.456;12.626;2024-02-28T10:30:12;7.80;70.40
13332;DHT22;6735;51.456;12.626;2024-02-28T10:32:51;7.80;69.90
13332;DHT22;6735;51.456;12.626;2024-02-28T10:35:18;7.80;70.00
13332;DHT22;6735;51.456;12.626;2024-02-28T10:37:51;7.70;69.60
13332;DHT22;6735;51.456;12.626;2024-02-28T10:40:17;7.80;68.70
13332;DHT22;6735;51.456;12.626;2024-02-28T10:42:43;7.60;68.20
13332;DHT22;6735;51.456;12.626;2024-02-28T10:45:12;7.70;68.40
13332;DHT22;6735;51.456;12.626;2024-02-28T10:47:41;7.90;69.00
13332;DHT22;6735;51.456;12.626;2024-02-28T10:50:07;7.90;67.30
13332;DHT22;6735;51.456;12.626;2024-02-28T10:52:41;7.80;68.00
13332;DHT22;6735;51.456;12.626;2024-02-28T10:55:09;8.00;67.80
13332;DHT22;6735;51.456;12.626;2024-02-28T10:57:36;8.00;68.20
13332;DHT22;6735;51.456;12.626;2024-02-28T11:00:02;8.00;68.00
13332;DHT22;6735;51.456;12.626;2024-02-28T11:02:30;8.00;65.80
13332;DHT22;6735;51.456;12.626;2024-02-28T11:04:56;7.90;67.30
13332;DHT22;6735;51.456;12.626;2024-02-28T11:07:24;7.90;68.10
13332;DHT22;6735;51.456;12.626;2024-02-28T11:09:54;7.90;68.10
13332;DHT22;6735;51.456;12.626;2024-02-28T11:12:27;8.00;65.80
13332;DHT22;6735;51.456;12.626;2024-02-28T11:15:00;8.20;67.00
13332;DHT22;6735;51.456;12.626;2024-02-28T11:17:30;8.30;65.80
13332;DHT22;6735;51.456;12.626;2024-02-28T11:19:56;8.40;65.60
13332;DHT22;6735;51.456;12.626;2024-02-28T11:22:22;8.40;65.50
13332;DHT22;6735;51.456;12.626;2024-02-28T11:24:47;8.40;65.00
13332;DHT22;6735;51.456;12.626;2024-02-28T11:27:15;8.40;65.90
13332;DHT22;6735;51.456;12.626;2024-02-28T11:29:40;8.30;65.90
13332;DHT22;6735;51.456;12.626;2024-02-28T11:32:06;8.10;63.90
13332;DHT22;6735;51.456;12.626;2024-02-28T11:34:33;8.10;65.90
13332;DHT22;6735;51.456;12.626;2024-02-28T11:36:58;8.10;66.50
13332;DHT22;6735;51.456;12.626;2024-02-28T11:39:24;7.90;63.80
13332;DHT22;6735;51.456;12.626;2024-02-28T11:41:53;7.90;65.80
13332;DHT22;6735;51.456;12.626;2024-02-28T11:44:19;7.90;65.90
13332;DHT22;6735;51.456;12.626;2024-02-28T11:46:48;7.80;63.90
13332;DHT22;6735;51.456;12.626;2024-02-28T11:49:15;7.80;66.40
13332;DHT22;6735;51.456;12.626;2024-02-28T11:51:44;7.90;66.20
13332;DHT22;6735;51.456;12.626;2024-02-28T11:54:10;7.80;65.80
13332;DHT22;6735;51.456;12.626;2024-02-28T11:56:37;7.70;66.20
13332;DHT22;6735;51.456;12.626;2024-02-28T11:59:03;7.70;64.80
13332;DHT22;6735;51.456;12.626;2024-02-28T12:01:38;7.60;66.60
13332;DHT22;6735;51.456;12.626;2024-02-28T12:04:04;7.60;66.40
13332;DHT22;6735;51.456;12.626;2024-02-28T12:06:31;7.50;66.20
13332;DHT22;6735;51.456;12.626;2024-02-28T12:08:56;7.60;66.50
13332;DHT22;6735;51.456;12.626;2024-02-28T12:11:24;7.60;67.00
13332;DHT22;6735;51.456;12.626;2024-02-28T12:13:53;7.70;67.00
13332;DHT22;6735;51.456;12.626;2024-02-28T12:16:22;7.60;66.70
13332;DHT22;6735;51.456;12.626;2024-02-28T12:18:49;7.60;66.40
13332;DHT22;6735;51.456;12.626;2024-02-28T12:21:14;7.60;66.20
13332;DHT22;6735;51.456;12.626;2024-02-28T12:23:40;7.70;66.20
13332;DHT22;6735;51.456;12.626;2024-02-28T12:26:05;7.80;66.60
13332;DHT22;6735;51.456;12.626;2024-02-28T12:28:31;7.80;65.70
13332;DHT22;6735;51.456;12.626;2024-02-28T12:30:56;7.90;65.40
13332;DHT22;6735;51.456;12.626;2024-02-28T12:33:22;7.80;65.80
13332;DHT22;6735;51.456;12.626;2024-02-28T12:35:48;7.80;66.20
13332;DHT22;6735;51.456;12.626;2024-02-28T12:38:13;7.90;66.00
13332;DHT22;6735;51.456;12.626;2024-02-28T12:40:40;7.90;66.00
13332;DHT22;6735;51.456;12.626;2024-02-28T12:43:07;7.90;65.80
13332;DHT22;6735;51.456;12.626;2024-02-28T12:45:33;7.90;65.10
13332;DHT22;6735;51.456;12.626;2024-02-28T12:47:58;7.90;64.00
13332;DHT22;6735;51.456;12.626;2024-02-28T12:50:26;7.90;64.50
13332;DHT22;6735;51.456;12.626;2024-02-28T12:52:52;7.90;64.90
13332;DHT22;6735;51.456;12.626;2024-02-28T12:55:19;7.90;65.10
13332;DHT22;6735;51.456;12.626;2024-02-28T12:57:46;7.90;64.50
13332;DHT22;6735;51.456;12.626;2024-02-28T13:00:12;8.00;64.70
13332;DHT22;6735;51.456;12.626;2024-02-28T13:02:38;8.10;64.60
13332;DHT22;6735;51.456;12.626;2024-02-28T13:05:04;8.00;63.80
13332;DHT22;6735;51.456;12.626;2024-02-28T13:07:29;8.00;63.80
13332;DHT22;6735;51.456;12.626;2024-02-28T13:09:55;8.00;64.00
13332;DHT22;6735;51.456;12.626;2024-02-28T13:12:21;8.10;63.60
13332;DHT22;6735;51.456;12.626;2024-02-28T13:14:46;8.10;64.20
13332;DHT22;6735;51.456;12.626;2024-02-28T13:17:12;8.00;63.40
13332;DHT22;6735;51.456;12.626;2024-02-28T13:19:38;8.00;63.50
13332;DHT22;6735;51.456;12.626;2024-02-28T13:22:05;8.00;62.30
13332;DHT22;6735;51.456;12.626;2024-02-28T13:24:30;8.10;63.70
13332;DHT22;6735;51.456;12.626;2024-02-28T13:26:56;8.10;63.80
13332;DHT22;6735;51.456;12.626;2024-02-28T13:29:21;8.10;63.50
13332;DHT22;6735;51.456;12.626;2024-02-28T13:31:46;8.10;63.50
13332;DHT22;6735;51.456;12.626;2024-02-28T13:34:12;8.10;63.10
13332;DHT22;6735;51.456;12.626;2024-02-28T13:36:37;8.10;63.00
13332;DHT22;6735;51.456;12.626;2024-02-28T13:39:08;8.10;61.70
13332;DHT22;6735;51.456;12.626;2024-02-28T13:41:34;8.00;63.00
13332;DHT22;6735;51.456;12.626;2024-02-28T13:43:59;8.10;63.20
13332;DHT22;6735;51.456;12.626;2024-02-28T13:46:24;8.00;62.90
13332;DHT22;6735;51.456;12.626;2024-02-28T13:48:50;8.10;63.90
13332;DHT22;6735;51.456;12.626;2024-02-28T13:51:15;8.20;63.40
13332;DHT22;6735;51.456;12.626;2024-02-28T13:53:41;8.10;63.20
13332;DHT22;6735;51.456;12.626;2024-02-28T13:56:06;8.10;62.30
13332;DHT22;6735;51.456;12.626;2024-02-28T13:58:32;8.20;62.80
13332;DHT22;6735;51.456;12.626;2024-02-28T14:00:57;8.10;62.50
13332;DHT22;6735;51.456;12.626;2024-02-28T14:03:23;8.20;61.80
13332;DHT22;6735;51.456;12.626;2024-02-28T14:05:50;8.10;61.40
13332;DHT22;6735;51.456;12.626;2024-02-28T14:08:16;8.10;61.40
13332;DHT22;6735;51.456;12.626;2024-02-28T14:10:42;8.10;61.10
13332;DHT22;6735;51.456;12.626;2024-02-28T14:13:08;8.10;61.10
13332;DHT22;6735;51.456;12.626;2024-02-28T14:15:33;8.10;61.50
13332;DHT22;6735;51.456;12.626;2024-02-28T14:18:01;8.10;60.90
13332;DHT22;6735;51.456;12.626;2024-02-28T14:20:28;8.10;61.00
13332;DHT22;6735;51.456;12.626;2024-02-28T14:22:54;8.10;60.40
13332;DHT22;6735;51.456;12.626;2024-02-28T14:25:19;8.20;61.40
13332;DHT22;6735;51.456;12.626;2024-02-28T14:27:48;8.10;61.20
13332;DHT22;6735;51.456;12.626;2024-02-28T14:30:14;8.20;61.30
13332;DHT22;6735;51.456;12.626;2024-02-28T14:32:41;8.20;61.40
13332;DHT22;6735;51.456;12.626;2024-02-28T14:35:08;8.20;61.50
13332;DHT22;6735;51.456;12.626;2024-02-28T14:37:34;8.10;61.50
13332;DHT22;6735;51.456;12.626;2024-02-28T14:40:01;8.10;61.40
13332;DHT22;6735;51.456;12.626;2024-02-28T14:42:27;8.10;61.10
13332;DHT22;6735;51.456;12.626;2024-02-28T14:44:52;8.10;63.50
13332;DHT22;6735;51.456;12.626;2024-02-28T14:47:19;8.10;62.30
13332;DHT22;6735;51.456;12.626;2024-02-28T14:49:45;8.10;61.40
13332;DHT22;6735;51.456;12.626;2024-02-28T14:52:10;8.00;61.20
13332;DHT22;6735;51.456;12.626;2024-02-28T14:54:36;8.00;60.80
13332;DHT22;6735;51.456;12.626;2024-02-28T14:57:04;8.00;62.20
13332;DHT22;6735;51.456;12.626;2024-02-28T14:59:29;7.90;61.30
13332;DHT22;6735;51.456;12.626;2024-02-28T15:01:55;7.90;61.90
13332;DHT22;6735;51.456;12.626;2024-02-28T15:04:20;7.90;62.00
13332;DHT22;6735;51.456;12.626;2024-02-28T15:06:46;7.90;62.20
13332;DHT22;6735;51.456;12.626;2024-02-28T15:09:11;7.90;62.60
13332;DHT22;6735;51.456;12.626;2024-02-28T15:11:37;7.80;62.30
13332;DHT22;6735;51.456;12.626;2024-02-28T15:14:02;7.80;62.90
13332;DHT22;6735;51.456;12.626;2024-02-28T15:16:29;7.70;63.10
13332;DHT22;6735;51.456;12.626;2024-02-28T15:18:54;7.70;63.30
13332;DHT22;6735;51.456;12.626;2024-02-28T15:21:20;7.60;63.60
13332;DHT22;6735;51.456;12.626;2024-02-28T15:23:46;7.60;63.60
13332;DHT22;6735;51.456;12.626;2024-02-28T15:26:11;7.50;64.00
13332;DHT22;6735;51.456;12.626;2024-02-28T15:28:37;7.50;63.90
13332;DHT22;6735;51.456;12.626;2024-02-28T15:31:02;7.40;63.70
13332;DHT22;6735;51.456;12.626;2024-02-28T15:33:28;7.40;64.40
13332;DHT22;6735;51.456;12.626;2024-02-28T15:35:54;7.30;64.80
13332;DHT22;6735;51.456;12.626;2024-02-28T15:38:20;7.20;64.90